sensor_id;sensor_type;location;lat;lon;timestamp;P1;durP1;ratioP1;P2;durP2;ratioP2
16766;SDS011;8501;49.926;8.404;2022-07-10T00:00:36;5.05;;;3.55;;
16766;SDS011;8501;49.926;8.404;2022-07-10T00:03:02;4.68;;;3.17;;
16766;SDS011;8501;49.926;8.404;2022-07-10T00:05:29;4.90;;;3.15;;
16766;SDS011;8501;49.926;8.404;2022-07-10T00:07:55;4.60;;;2.90;;
16766;SDS011;8501;49.926;8.404;2022-07-10T00:10:21;4.80;;;2.85;;
16766;SDS011;8501;49.926;8.404;2022-07-10T00:12:47;3.83;;;2.80;;
16766;SDS011;8501;49.926;8.404;2022-07-10T00:15:14;4.82;;;2.80;;
16766;SDS011;8501;49.926;8.404;2022-07-10T00:17:40;3.35;;;2.33;;
16766;SDS011;8501;49.926;8.404;2022-07-10T00:20:06;5.03;;;2.63;;
16766;SDS011;8501;49.926;8.404;2022-07-10T00:22:33;4.55;;;2.70;;
16766;SDS011;8501;49.926;8.404;2022-07-10T00:25:00;5.65;;;3.10;;
16766;SDS011;8501;49.926;8.404;2022-07-10T00:27:26;4.35;;;2.63;;
16766;SDS011;8501;49.926;8.404;2022-07-10T00:29:51;5.25;;;2.97;;
16766;SDS011;8501;49.926;8.404;2022-07-10T00:32:17;3.58;;;2.50;;
16766;SDS011;8501;49.926;8.404;2022-07-10T00:34:42;4.43;;;2.50;;
16766;SDS011;8501;49.926;8.404;2022-07-10T00:37:08;2.85;;;2.35;;
16766;SDS011;8501;49.926;8.404;2022-07-10T00:39:34;3.35;;;2.40;;
16766;SDS011;8501;49.926;8.404;2022-07-10T00:42:08;3.47;;;2.30;;
16766;SDS011;8501;49.926;8.404;2022-07-10T00:44:38;3.10;;;2.50;;
16766;SDS011;8501;49.926;8.404;2022-07-10T00:47:06;5.00;;;2.40;;
16766;SDS011;8501;49.926;8.404;2022-07-10T00:49:33;4.68;;;2.67;;
16766;SDS011;8501;49.926;8.404;2022-07-10T00:52:00;5.18;;;2.75;;
16766;SDS011;8501;49.926;8.404;2022-07-10T00:54:29;4.95;;;2.47;;
16766;SDS011;8501;49.926;8.404;2022-07-10T00:56:56;3.63;;;2.63;;
16766;SDS011;8501;49.926;8.404;2022-07-10T00:59:22;4.18;;;2.40;;
16766;SDS011;8501;49.926;8.404;2022-07-10T01:01:50;5.13;;;2.58;;
16766;SDS011;8501;49.926;8.404;2022-07-10T01:04:16;4.35;;;2.65;;
16766;SDS011;8501;49.926;8.404;2022-07-10T01:06:41;3.45;;;2.60;;
16766;SDS011;8501;49.926;8.404;2022-07-10T01:09:07;3.47;;;2.63;;
16766;SDS011;8501;49.926;8.404;2022-07-10T01:11:33;4.10;;;2.40;;
16766;SDS011;8501;49.926;8.404;2022-07-10T01:13:59;4.68;;;2.50;;
16766;SDS011;8501;49.926;8.404;2022-07-10T01:16:25;4.82;;;2.80;;
16766;SDS011;8501;49.926;8.404;2022-07-10T01:18:51;5.15;;;2.60;;
16766;SDS011;8501;49.926;8.404;2022-07-10T01:21:26;4.05;;;2.75;;
16766;SDS011;8501;49.926;8.404;2022-07-10T01:23:56;5.80;;;2.70;;
16766;SDS011;8501;49.926;8.404;2022-07-10T01:26:22;4.47;;;2.58;;
16766;SDS011;8501;49.926;8.404;2022-07-10T01:28:49;3.78;;;2.58;;
16766;SDS011;8501;49.926;8.404;2022-07-10T01:31:25;4.20;;;2.60;;
16766;SDS011;8501;49.926;8.404;2022-07-10T01:33:51;5.15;;;2.80;;
16766;SDS011;8501;49.926;8.404;2022-07-10T01:36:18;3.88;;;2.45;;
16766;SDS011;8501;49.926;8.404;2022-07-10T01:38:45;5.85;;;2.67;;
16766;SDS011;8501;49.926;8.404;2022-07-10T01:41:11;5.90;;;3.00;;
16766;SDS011;8501;49.926;8.404;2022-07-10T01:43:36;4.50;;;2.50;;
16766;SDS011;8501;49.926;8.404;2022-07-10T01:46:03;4.20;;;2.53;;
16766;SDS011;8501;49.926;8.404;2022-07-10T01:48:29;4.57;;;2.63;;
16766;SDS011;8501;49.926;8.404;2022-07-10T01:50:55;3.33;;;2.50;;
16766;SDS011;8501;49.926;8.404;2022-07-10T01:53:21;4.32;;;2.65;;
16766;SDS011;8501;49.926;8.404;2022-07-10T01:55:46;5.40;;;2.80;;
16766;SDS011;8501;49.926;8.404;2022-07-10T01:58:12;7.57;;;2.85;;
16766;SDS011;8501;49.926;8.404;2022-07-10T02:00:37;2.83;;;2.53;;
16766;SDS011;8501;49.926;8.404;2022-07-10T02:03:03;5.60;;;2.65;;
16766;SDS011;8501;49.926;8.404;2022-07-10T02:05:47;4.47;;;2.60;;
16766;SDS011;8501;49.926;8.404;2022-07-10T02:08:12;5.63;;;2.83;;
16766;SDS011;8501;49.926;8.404;2022-07-10T02:10:38;5.32;;;2.72;;
16766;SDS011;8501;49.926;8.404;2022-07-10T02:13:04;6.63;;;2.95;;
16766;SDS011;8501;49.926;8.404;2022-07-10T02:15:29;5.75;;;2.72;;
16766;SDS011;8501;49.926;8.404;2022-07-10T02:17:55;3.85;;;2.63;;
16766;SDS011;8501;49.926;8.404;2022-07-10T02:20:21;5.13;;;2.63;;
16766;SDS011;8501;49.926;8.404;2022-07-10T02:22:47;3.95;;;2.78;;
16766;SDS011;8501;49.926;8.404;2022-07-10T02:25:12;4.70;;;2.28;;
16766;SDS011;8501;49.926;8.404;2022-07-10T02:27:37;5.32;;;2.50;;
16766;SDS011;8501;49.926;8.404;2022-07-10T02:30:04;4.38;;;2.42;;
16766;SDS011;8501;49.926;8.404;2022-07-10T02:32:30;4.05;;;2.78;;
16766;SDS011;8501;49.926;8.404;2022-07-10T02:34:56;5.78;;;2.70;;
16766;SDS011;8501;49.926;8.404;2022-07-10T02:37:21;3.97;;;2.80;;
16766;SDS011;8501;49.926;8.404;2022-07-10T02:39:47;5.88;;;2.40;;
16766;SDS011;8501;49.926;8.404;2022-07-10T02:42:13;4.82;;;2.60;;
16766;SDS011;8501;49.926;8.404;2022-07-10T02:44:38;5.53;;;2.58;;
16766;SDS011;8501;49.926;8.404;2022-07-10T02:47:04;3.42;;;2.47;;
16766;SDS011;8501;49.926;8.404;2022-07-10T02:49:29;3.13;;;2.55;;
16766;SDS011;8501;49.926;8.404;2022-07-10T02:51:55;4.80;;;2.50;;
16766;SDS011;8501;49.926;8.404;2022-07-10T02:54:20;4.72;;;2.30;;
16766;SDS011;8501;49.926;8.404;2022-07-10T02:56:46;4.15;;;2.47;;
16766;SDS011;8501;49.926;8.404;2022-07-10T02:59:11;4.85;;;2.50;;
16766;SDS011;8501;49.926;8.404;2022-07-10T03:01:37;3.10;;;2.80;;
16766;SDS011;8501;49.926;8.404;2022-07-10T03:04:03;4.15;;;2.38;;
16766;SDS011;8501;49.926;8.404;2022-07-10T03:06:28;3.70;;;2.45;;
16766;SDS011;8501;49.926;8.404;2022-07-10T03:08:55;4.20;;;2.42;;
16766;SDS011;8501;49.926;8.404;2022-07-10T03:11:20;4.85;;;2.40;;
16766;SDS011;8501;49.926;8.404;2022-07-10T03:13:46;4.93;;;2.63;;
16766;SDS011;8501;49.926;8.404;2022-07-10T03:16:13;3.42;;;2.42;;
16766;SDS011;8501;49.926;8.404;2022-07-10T03:18:41;5.30;;;2.50;;
16766;SDS011;8501;49.926;8.404;2022-07-10T03:21:06;5.82;;;2.35;;
16766;SDS011;8501;49.926;8.404;2022-07-10T03:23:32;3.75;;;2.53;;
16766;SDS011;8501;49.926;8.404;2022-07-10T03:25:57;4.47;;;2.20;;
16766;SDS011;8501;49.926;8.404;2022-07-10T03:28:23;3.90;;;2.35;;
16766;SDS011;8501;49.926;8.404;2022-07-10T03:30:48;4.43;;;2.30;;
16766;SDS011;8501;49.926;8.404;2022-07-10T03:33:14;3.60;;;2.50;;
16766;SDS011;8501;49.926;8.404;2022-07-10T03:35:39;3.55;;;2.30;;
16766;SDS011;8501;49.926;8.404;2022-07-10T03:38:05;3.92;;;2.50;;
16766;SDS011;8501;49.926;8.404;2022-07-10T03:40:30;4.95;;;2.20;;
16766;SDS011;8501;49.926;8.404;2022-07-10T03:42:56;5.40;;;2.60;;
16766;SDS011;8501;49.926;8.404;2022-07-10T03:45:21;4.30;;;2.50;;
16766;SDS011;8501;49.926;8.404;2022-07-10T03:47:47;5.78;;;2.60;;
16766;SDS011;8501;49.926;8.404;2022-07-10T03:50:12;4.20;;;2.25;;
16766;SDS011;8501;49.926;8.404;2022-07-10T03:52:38;4.70;;;2.38;;
16766;SDS011;8501;49.926;8.404;2022-07-10T03:55:04;5.13;;;2.67;;
16766;SDS011;8501;49.926;8.404;2022-07-10T03:57:30;5.40;;;2.35;;
16766;SDS011;8501;49.926;8.404;2022-07-10T04:00:14;5.30;;;2.50;;
16766;SDS011;8501;49.926;8.404;2022-07-10T04:02:40;3.50;;;2.40;;
16766;SDS011;8501;49.926;8.404;2022-07-10T04:05:06;4.07;;;2.17;;
16766;SDS011;8501;49.926;8.404;2022-07-10T04:07:33;3.90;;;2.30;;
16766;SDS011;8501;49.926;8.404;2022-07-10T04:09:59;4.28;;;2.50;;
16766;SDS011;8501;49.926;8.404;2022-07-10T04:12:25;3.08;;;2.35;;
16766;SDS011;8501;49.926;8.404;2022-07-10T04:14:50;4.03;;;2.33;;
16766;SDS011;8501;49.926;8.404;2022-07-10T04:17:16;3.88;;;2.05;;
16766;SDS011;8501;49.926;8.404;2022-07-10T04:19:42;4.22;;;2.13;;
16766;SDS011;8501;49.926;8.404;2022-07-10T04:22:08;5.78;;;2.42;;
16766;SDS011;8501;49.926;8.404;2022-07-10T04:24:34;4.65;;;2.47;;
16766;SDS011;8501;49.926;8.404;2022-07-10T04:27:00;4.63;;;2.28;;
16766;SDS011;8501;49.926;8.404;2022-07-10T04:29:26;3.63;;;2.10;;
16766;SDS011;8501;49.926;8.404;2022-07-10T04:31:51;2.40;;;2.00;;
16766;SDS011;8501;49.926;8.404;2022-07-10T04:34:17;3.45;;;2.20;;
16766;SDS011;8501;49.926;8.404;2022-07-10T04:36:42;6.63;;;2.65;;
16766;SDS011;8501;49.926;8.404;2022-07-10T04:39:08;4.80;;;1.98;;
16766;SDS011;8501;49.926;8.404;2022-07-10T04:41:34;6.38;;;2.22;;
16766;SDS011;8501;49.926;8.404;2022-07-10T04:43:59;5.68;;;2.25;;
16766;SDS011;8501;49.926;8.404;2022-07-10T04:46:25;4.70;;;2.20;;
16766;SDS011;8501;49.926;8.404;2022-07-10T04:48:50;4.63;;;2.30;;
16766;SDS011;8501;49.926;8.404;2022-07-10T04:51:16;3.20;;;1.90;;
16766;SDS011;8501;49.926;8.404;2022-07-10T04:53:42;4.57;;;2.00;;
16766;SDS011;8501;49.926;8.404;2022-07-10T04:56:07;2.90;;;1.80;;
16766;SDS011;8501;49.926;8.404;2022-07-10T04:58:33;3.08;;;2.15;;
16766;SDS011;8501;49.926;8.404;2022-07-10T05:00:58;5.30;;;2.10;;
16766;SDS011;8501;49.926;8.404;2022-07-10T05:03:24;3.67;;;1.60;;
16766;SDS011;8501;49.926;8.404;2022-07-10T05:05:50;4.82;;;1.75;;
16766;SDS011;8501;49.926;8.404;2022-07-10T05:08:15;4.70;;;1.63;;
16766;SDS011;8501;49.926;8.404;2022-07-10T05:10:40;3.35;;;1.70;;
16766;SDS011;8501;49.926;8.404;2022-07-10T05:13:06;3.78;;;1.70;;
16766;SDS011;8501;49.926;8.404;2022-07-10T05:15:32;3.28;;;1.63;;
16766;SDS011;8501;49.926;8.404;2022-07-10T05:17:57;1.88;;;1.40;;
16766;SDS011;8501;49.926;8.404;2022-07-10T05:20:23;2.28;;;1.30;;
16766;SDS011;8501;49.926;8.404;2022-07-10T05:22:48;2.95;;;1.50;;
16766;SDS011;8501;49.926;8.404;2022-07-10T05:25:14;3.10;;;1.52;;
16766;SDS011;8501;49.926;8.404;2022-07-10T05:27:39;4.43;;;1.60;;
16766;SDS011;8501;49.926;8.404;2022-07-10T05:30:05;3.53;;;1.45;;
16766;SDS011;8501;49.926;8.404;2022-07-10T05:32:31;2.15;;;1.30;;
16766;SDS011;8501;49.926;8.404;2022-07-10T05:34:57;3.63;;;1.30;;
16766;SDS011;8501;49.926;8.404;2022-07-10T05:37:24;1.95;;;1.42;;
16766;SDS011;8501;49.926;8.404;2022-07-10T05:39:49;4.53;;;1.50;;
16766;SDS011;8501;49.926;8.404;2022-07-10T05:42:15;4.13;;;1.40;;
16766;SDS011;8501;49.926;8.404;2022-07-10T05:44:40;5.50;;;1.45;;
16766;SDS011;8501;49.926;8.404;2022-07-10T05:47:06;3.08;;;1.58;;
16766;SDS011;8501;49.926;8.404;2022-07-10T05:49:32;4.40;;;1.40;;
16766;SDS011;8501;49.926;8.404;2022-07-10T05:51:57;3.00;;;1.30;;
16766;SDS011;8501;49.926;8.404;2022-07-10T05:54:23;3.15;;;1.50;;
16766;SDS011;8501;49.926;8.404;2022-07-10T05:56:49;4.68;;;1.60;;
16766;SDS011;8501;49.926;8.404;2022-07-10T05:59:15;3.78;;;1.20;;
16766;SDS011;8501;49.926;8.404;2022-07-10T06:01:40;2.38;;;1.20;;
16766;SDS011;8501;49.926;8.404;2022-07-10T06:04:06;5.50;;;1.20;;
16766;SDS011;8501;49.926;8.404;2022-07-10T06:06:32;5.00;;;1.50;;
16766;SDS011;8501;49.926;8.404;2022-07-10T06:08:57;2.38;;;1.23;;
16766;SDS011;8501;49.926;8.404;2022-07-10T06:11:24;4.10;;;1.20;;
16766;SDS011;8501;49.926;8.404;2022-07-10T06:13:49;1.95;;;1.30;;
16766;SDS011;8501;49.926;8.404;2022-07-10T06:16:15;3.50;;;1.10;;
16766;SDS011;8501;49.926;8.404;2022-07-10T06:18:40;3.72;;;1.20;;
16766;SDS011;8501;49.926;8.404;2022-07-10T06:21:06;2.88;;;1.30;;
16766;SDS011;8501;49.926;8.404;2022-07-10T06:23:33;3.60;;;1.20;;
16766;SDS011;8501;49.926;8.404;2022-07-10T06:25:58;3.22;;;1.30;;
16766;SDS011;8501;49.926;8.404;2022-07-10T06:28:24;3.90;;;1.20;;
16766;SDS011;8501;49.926;8.404;2022-07-10T06:30:49;4.30;;;1.48;;
16766;SDS011;8501;49.926;8.404;2022-07-10T06:33:15;2.17;;;1.10;;
16766;SDS011;8501;49.926;8.404;2022-07-10T06:35:41;3.72;;;1.33;;
16766;SDS011;8501;49.926;8.404;2022-07-10T06:38:06;2.85;;;1.20;;
16766;SDS011;8501;49.926;8.404;2022-07-10T06:40:35;3.20;;;1.20;;
16766;SDS011;8501;49.926;8.404;2022-07-10T06:43:02;2.65;;;1.15;;
16766;SDS011;8501;49.926;8.404;2022-07-10T06:45:28;5.35;;;1.30;;
16766;SDS011;8501;49.926;8.404;2022-07-10T06:47:53;3.70;;;1.40;;
16766;SDS011;8501;49.926;8.404;2022-07-10T06:50:28;2.58;;;1.20;;
16766;SDS011;8501;49.926;8.404;2022-07-10T06:52:59;2.95;;;1.10;;
16766;SDS011;8501;49.926;8.404;2022-07-10T06:55:26;2.92;;;1.30;;
16766;SDS011;8501;49.926;8.404;2022-07-10T06:57:52;1.98;;;0.90;;
16766;SDS011;8501;49.926;8.404;2022-07-10T07:00:19;2.78;;;1.20;;
16766;SDS011;8501;49.926;8.404;2022-07-10T07:02:45;2.25;;;1.00;;
16766;SDS011;8501;49.926;8.404;2022-07-10T07:05:10;2.97;;;1.02;;
16766;SDS011;8501;49.926;8.404;2022-07-10T07:07:36;2.60;;;1.10;;
16766;SDS011;8501;49.926;8.404;2022-07-10T07:10:02;1.92;;;0.90;;
16766;SDS011;8501;49.926;8.404;2022-07-10T07:12:28;2.45;;;0.73;;
16766;SDS011;8501;49.926;8.404;2022-07-10T07:14:54;2.33;;;0.88;;
16766;SDS011;8501;49.926;8.404;2022-07-10T07:17:19;3.05;;;0.77;;
16766;SDS011;8501;49.926;8.404;2022-07-10T07:19:50;2.33;;;0.98;;
16766;SDS011;8501;49.926;8.404;2022-07-10T07:22:35;2.97;;;0.85;;
16766;SDS011;8501;49.926;8.404;2022-07-10T07:25:20;1.67;;;0.95;;
16766;SDS011;8501;49.926;8.404;2022-07-10T07:27:46;2.42;;;0.88;;
16766;SDS011;8501;49.926;8.404;2022-07-10T07:30:12;1.17;;;0.82;;
16766;SDS011;8501;49.926;8.404;2022-07-10T07:32:42;3.17;;;1.10;;
16766;SDS011;8501;49.926;8.404;2022-07-10T07:35:09;3.83;;;0.93;;
16766;SDS011;8501;49.926;8.404;2022-07-10T07:37:36;3.63;;;1.05;;
16766;SDS011;8501;49.926;8.404;2022-07-10T07:40:07;2.55;;;1.00;;
16766;SDS011;8501;49.926;8.404;2022-07-10T07:42:34;2.40;;;1.10;;
16766;SDS011;8501;49.926;8.404;2022-07-10T07:45:00;2.00;;;0.80;;
16766;SDS011;8501;49.926;8.404;2022-07-10T07:47:27;3.22;;;1.17;;
16766;SDS011;8501;49.926;8.404;2022-07-10T07:49:52;1.10;;;1.00;;
16766;SDS011;8501;49.926;8.404;2022-07-10T07:52:18;2.30;;;0.90;;
16766;SDS011;8501;49.926;8.404;2022-07-10T07:54:43;2.63;;;1.02;;
16766;SDS011;8501;49.926;8.404;2022-07-10T07:57:09;3.42;;;1.17;;
16766;SDS011;8501;49.926;8.404;2022-07-10T07:59:34;3.33;;;1.10;;
16766;SDS011;8501;49.926;8.404;2022-07-10T08:02:00;2.13;;;1.10;;
16766;SDS011;8501;49.926;8.404;2022-07-10T08:04:26;2.40;;;0.90;;
16766;SDS011;8501;49.926;8.404;2022-07-10T08:06:51;3.83;;;0.90;;
16766;SDS011;8501;49.926;8.404;2022-07-10T08:09:18;2.35;;;0.90;;
16766;SDS011;8501;49.926;8.404;2022-07-10T08:11:45;1.65;;;0.90;;
16766;SDS011;8501;49.926;8.404;2022-07-10T08:14:11;1.88;;;0.85;;
16766;SDS011;8501;49.926;8.404;2022-07-10T08:16:37;1.75;;;0.90;;
16766;SDS011;8501;49.926;8.404;2022-07-10T08:19:03;2.75;;;0.90;;
16766;SDS011;8501;49.926;8.404;2022-07-10T08:21:28;2.05;;;0.82;;
16766;SDS011;8501;49.926;8.404;2022-07-10T08:23:55;1.50;;;0.80;;
16766;SDS011;8501;49.926;8.404;2022-07-10T08:26:20;2.47;;;1.08;;
16766;SDS011;8501;49.926;8.404;2022-07-10T08:28:46;1.38;;;0.95;;
16766;SDS011;8501;49.926;8.404;2022-07-10T08:31:12;2.17;;;0.93;;
16766;SDS011;8501;49.926;8.404;2022-07-10T08:33:37;2.08;;;1.05;;
16766;SDS011;8501;49.926;8.404;2022-07-10T08:36:03;1.58;;;0.90;;
16766;SDS011;8501;49.926;8.404;2022-07-10T08:38:29;1.33;;;1.10;;
16766;SDS011;8501;49.926;8.404;2022-07-10T08:40:55;2.03;;;0.90;;
16766;SDS011;8501;49.926;8.404;2022-07-10T08:43:24;2.47;;;0.90;;
16766;SDS011;8501;49.926;8.404;2022-07-10T08:45:50;1.05;;;0.65;;
16766;SDS011;8501;49.926;8.404;2022-07-10T08:48:19;2.08;;;1.25;;
16766;SDS011;8501;49.926;8.404;2022-07-10T08:50:47;1.70;;;0.93;;
16766;SDS011;8501;49.926;8.404;2022-07-10T08:53:16;2.25;;;0.98;;
16766;SDS011;8501;49.926;8.404;2022-07-10T08:55:48;1.95;;;0.90;;
16766;SDS011;8501;49.926;8.404;2022-07-10T08:58:13;1.90;;;0.90;;
16766;SDS011;8501;49.926;8.404;2022-07-10T09:00:39;2.97;;;1.05;;
16766;SDS011;8501;49.926;8.404;2022-07-10T09:03:06;1.48;;;0.90;;
16766;SDS011;8501;49.926;8.404;2022-07-10T09:05:32;3.83;;;1.23;;
16766;SDS011;8501;49.926;8.404;2022-07-10T09:07:58;2.92;;;0.90;;
16766;SDS011;8501;49.926;8.404;2022-07-10T09:10:24;1.80;;;0.90;;
16766;SDS011;8501;49.926;8.404;2022-07-10T09:12:54;2.88;;;1.20;;
16766;SDS011;8501;49.926;8.404;2022-07-10T09:15:30;2.42;;;1.27;;
16766;SDS011;8501;49.926;8.404;2022-07-10T09:18:00;2.40;;;1.30;;
16766;SDS011;8501;49.926;8.404;2022-07-10T09:22:56;3.00;;;1.38;;
16766;SDS011;8501;49.926;8.404;2022-07-10T09:25:24;1.80;;;1.02;;
16766;SDS011;8501;49.926;8.404;2022-07-10T09:27:57;2.50;;;1.20;;
16766;SDS011;8501;49.926;8.404;2022-07-10T09:30:37;2.50;;;1.30;;
16766;SDS011;8501;49.926;8.404;2022-07-10T09:33:16;3.60;;;1.50;;
16766;SDS011;8501;49.926;8.404;2022-07-10T09:41:24;4.18;;;1.50;;
16766;SDS011;8501;49.926;8.404;2022-07-10T09:43:55;3.20;;;1.30;;
16766;SDS011;8501;49.926;8.404;2022-07-10T09:46:41;3.00;;;1.30;;
16766;SDS011;8501;49.926;8.404;2022-07-10T09:51:36;3.42;;;1.65;;
16766;SDS011;8501;49.926;8.404;2022-07-10T09:54:08;3.65;;;1.75;;
16766;SDS011;8501;49.926;8.404;2022-07-10T09:59:12;2.15;;;1.20;;
16766;SDS011;8501;49.926;8.404;2022-07-10T10:01:43;5.32;;;1.48;;
16766;SDS011;8501;49.926;8.404;2022-07-10T10:04:10;4.05;;;1.38;;
16766;SDS011;8501;49.926;8.404;2022-07-10T10:06:38;3.60;;;1.45;;
16766;SDS011;8501;49.926;8.404;2022-07-10T10:11:40;3.42;;;1.60;;
16766;SDS011;8501;49.926;8.404;2022-07-10T10:14:09;3.88;;;1.52;;
16766;SDS011;8501;49.926;8.404;2022-07-10T10:16:35;2.42;;;1.50;;
16766;SDS011;8501;49.926;8.404;2022-07-10T10:19:02;3.60;;;1.52;;
16766;SDS011;8501;49.926;8.404;2022-07-10T10:21:47;4.82;;;1.50;;
16766;SDS011;8501;49.926;8.404;2022-07-10T10:24:13;2.95;;;1.63;;
16766;SDS011;8501;49.926;8.404;2022-07-10T10:26:39;3.20;;;1.55;;
16766;SDS011;8501;49.926;8.404;2022-07-10T10:29:06;3.63;;;1.30;;
16766;SDS011;8501;49.926;8.404;2022-07-10T10:31:33;2.92;;;1.42;;
16766;SDS011;8501;49.926;8.404;2022-07-10T10:33:59;4.60;;;1.50;;
16766;SDS011;8501;49.926;8.404;2022-07-10T10:39:17;1.85;;;1.48;;
16766;SDS011;8501;49.926;8.404;2022-07-10T10:41:52;4.57;;;1.52;;
16766;SDS011;8501;49.926;8.404;2022-07-10T10:44:19;5.95;;;1.70;;
16766;SDS011;8501;49.926;8.404;2022-07-10T10:46:59;3.95;;;1.48;;
16766;SDS011;8501;49.926;8.404;2022-07-10T10:49:49;2.90;;;1.60;;
16766;SDS011;8501;49.926;8.404;2022-07-10T10:52:16;3.28;;;1.35;;
16766;SDS011;8501;49.926;8.404;2022-07-10T10:55:02;4.00;;;1.50;;
16766;SDS011;8501;49.926;8.404;2022-07-10T11:00:02;2.65;;;1.63;;
16766;SDS011;8501;49.926;8.404;2022-07-10T11:02:32;2.53;;;1.40;;
16766;SDS011;8501;49.926;8.404;2022-07-10T11:05:38;2.47;;;1.60;;
16766;SDS011;8501;49.926;8.404;2022-07-10T11:08:03;2.38;;;1.77;;
16766;SDS011;8501;49.926;8.404;2022-07-10T11:10:30;4.75;;;1.50;;
16766;SDS011;8501;49.926;8.404;2022-07-10T11:13:09;3.55;;;1.40;;
16766;SDS011;8501;49.926;8.404;2022-07-10T11:15:40;2.42;;;1.58;;
16766;SDS011;8501;49.926;8.404;2022-07-10T11:18:20;3.28;;;1.73;;
16766;SDS011;8501;49.926;8.404;2022-07-10T11:20:53;1.80;;;1.50;;
16766;SDS011;8501;49.926;8.404;2022-07-10T11:25:55;4.35;;;1.70;;
16766;SDS011;8501;49.926;8.404;2022-07-10T11:31:33;3.83;;;1.70;;
16766;SDS011;8501;49.926;8.404;2022-07-10T11:34:11;6.07;;;1.80;;
16766;SDS011;8501;49.926;8.404;2022-07-10T11:36:38;3.50;;;1.70;;
16766;SDS011;8501;49.926;8.404;2022-07-10T11:39:08;2.88;;;1.48;;
16766;SDS011;8501;49.926;8.404;2022-07-10T11:41:42;4.03;;;2.10;;
16766;SDS011;8501;49.926;8.404;2022-07-10T11:44:12;3.63;;;1.73;;
16766;SDS011;8501;49.926;8.404;2022-07-10T11:46:40;4.90;;;2.13;;
16766;SDS011;8501;49.926;8.404;2022-07-10T11:49:09;7.68;;;4.72;;
16766;SDS011;8501;49.926;8.404;2022-07-10T11:51:36;3.00;;;1.85;;
16766;SDS011;8501;49.926;8.404;2022-07-10T11:56:36;6.47;;;3.13;;
16766;SDS011;8501;49.926;8.404;2022-07-10T11:59:04;3.15;;;2.00;;
16766;SDS011;8501;49.926;8.404;2022-07-10T12:01:44;2.80;;;2.20;;
16766;SDS011;8501;49.926;8.404;2022-07-10T12:04:12;4.93;;;1.67;;
16766;SDS011;8501;49.926;8.404;2022-07-10T12:06:43;5.75;;;1.75;;
16766;SDS011;8501;49.926;8.404;2022-07-10T12:09:14;3.25;;;1.50;;
16766;SDS011;8501;49.926;8.404;2022-07-10T12:11:42;3.63;;;1.65;;
16766;SDS011;8501;49.926;8.404;2022-07-10T12:16:36;2.50;;;2.00;;
16766;SDS011;8501;49.926;8.404;2022-07-10T12:19:02;4.28;;;1.60;;
16766;SDS011;8501;49.926;8.404;2022-07-10T12:21:28;3.88;;;1.50;;
16766;SDS011;8501;49.926;8.404;2022-07-10T12:23:55;3.08;;;1.50;;
16766;SDS011;8501;49.926;8.404;2022-07-10T12:26:21;4.13;;;1.92;;
16766;SDS011;8501;49.926;8.404;2022-07-10T12:28:47;3.85;;;1.92;;
16766;SDS011;8501;49.926;8.404;2022-07-10T12:31:24;3.45;;;1.55;;
16766;SDS011;8501;49.926;8.404;2022-07-10T12:33:52;4.25;;;1.40;;
16766;SDS011;8501;49.926;8.404;2022-07-10T12:36:20;2.78;;;1.20;;
16766;SDS011;8501;49.926;8.404;2022-07-10T12:38:52;3.03;;;1.10;;
16766;SDS011;8501;49.926;8.404;2022-07-10T12:41:20;1.50;;;1.13;;
16766;SDS011;8501;49.926;8.404;2022-07-10T12:43:49;4.55;;;1.48;;
16766;SDS011;8501;49.926;8.404;2022-07-10T12:46:16;3.50;;;1.25;;
16766;SDS011;8501;49.926;8.404;2022-07-10T12:51:34;3.88;;;1.38;;
16766;SDS011;8501;49.926;8.404;2022-07-10T12:54:00;5.95;;;1.42;;
16766;SDS011;8501;49.926;8.404;2022-07-10T12:56:35;4.03;;;1.55;;
16766;SDS011;8501;49.926;8.404;2022-07-10T12:59:03;3.50;;;1.35;;
16766;SDS011;8501;49.926;8.404;2022-07-10T13:01:43;3.92;;;1.27;;
16766;SDS011;8501;49.926;8.404;2022-07-10T13:04:09;3.28;;;1.33;;
16766;SDS011;8501;49.926;8.404;2022-07-10T13:06:36;2.53;;;1.25;;
16766;SDS011;8501;49.926;8.404;2022-07-10T13:09:17;1.75;;;1.27;;
16766;SDS011;8501;49.926;8.404;2022-07-10T13:11:44;1.27;;;1.10;;
16766;SDS011;8501;49.926;8.404;2022-07-10T13:14:09;3.35;;;1.30;;
16766;SDS011;8501;49.926;8.404;2022-07-10T13:16:35;2.38;;;1.20;;
16766;SDS011;8501;49.926;8.404;2022-07-10T13:19:00;5.93;;;3.38;;
16766;SDS011;8501;49.926;8.404;2022-07-10T13:21:26;2.60;;;2.03;;
16766;SDS011;8501;49.926;8.404;2022-07-10T13:23:51;1.77;;;1.10;;
16766;SDS011;8501;49.926;8.404;2022-07-10T13:26:17;3.25;;;1.20;;
16766;SDS011;8501;49.926;8.404;2022-07-10T13:28:43;2.15;;;1.05;;
16766;SDS011;8501;49.926;8.404;2022-07-10T13:33:43;2.22;;;1.08;;
16766;SDS011;8501;49.926;8.404;2022-07-10T13:36:08;1.02;;;0.80;;
16766;SDS011;8501;49.926;8.404;2022-07-10T13:38:34;0.85;;;0.50;;
16766;SDS011;8501;49.926;8.404;2022-07-10T13:41:00;2.15;;;0.55;;
16766;SDS011;8501;49.926;8.404;2022-07-10T13:43:25;0.70;;;0.60;;
16766;SDS011;8501;49.926;8.404;2022-07-10T13:45:55;0.60;;;0.60;;
16766;SDS011;8501;49.926;8.404;2022-07-10T13:48:22;1.00;;;0.70;;
16766;SDS011;8501;49.926;8.404;2022-07-10T13:50:47;1.27;;;0.70;;
16766;SDS011;8501;49.926;8.404;2022-07-10T13:53:14;0.75;;;0.70;;
16766;SDS011;8501;49.926;8.404;2022-07-10T13:55:41;1.67;;;0.77;;
16766;SDS011;8501;49.926;8.404;2022-07-10T13:58:07;1.17;;;0.60;;
16766;SDS011;8501;49.926;8.404;2022-07-10T14:00:34;1.90;;;0.90;;
16766;SDS011;8501;49.926;8.404;2022-07-10T14:03:00;1.60;;;0.63;;
16766;SDS011;8501;49.926;8.404;2022-07-10T14:05:26;1.00;;;0.75;;
16766;SDS011;8501;49.926;8.404;2022-07-10T14:10:32;1.63;;;0.80;;
16766;SDS011;8501;49.926;8.404;2022-07-10T14:12:57;1.88;;;1.42;;
16766;SDS011;8501;49.926;8.404;2022-07-10T14:15:23;3.53;;;1.40;;
16766;SDS011;8501;49.926;8.404;2022-07-10T14:17:49;2.92;;;1.00;;
16766;SDS011;8501;49.926;8.404;2022-07-10T14:20:16;1.00;;;0.80;;
16766;SDS011;8501;49.926;8.404;2022-07-10T14:22:42;1.00;;;0.90;;
16766;SDS011;8501;49.926;8.404;2022-07-10T14:25:11;1.95;;;1.10;;
16766;SDS011;8501;49.926;8.404;2022-07-10T14:27:36;1.95;;;0.95;;
16766;SDS011;8501;49.926;8.404;2022-07-10T14:30:03;1.80;;;1.10;;
16766;SDS011;8501;49.926;8.404;2022-07-10T14:32:30;1.98;;;1.20;;
16766;SDS011;8501;49.926;8.404;2022-07-10T14:34:55;3.33;;;1.25;;
16766;SDS011;8501;49.926;8.404;2022-07-10T14:37:21;2.33;;;1.20;;
16766;SDS011;8501;49.926;8.404;2022-07-10T14:39:47;1.95;;;1.38;;
16766;SDS011;8501;49.926;8.404;2022-07-10T14:45:02;2.05;;;1.00;;
16766;SDS011;8501;49.926;8.404;2022-07-10T14:47:32;2.42;;;1.15;;
16766;SDS011;8501;49.926;8.404;2022-07-10T14:49:59;2.60;;;1.30;;
16766;SDS011;8501;49.926;8.404;2022-07-10T14:52:25;2.60;;;1.33;;
16766;SDS011;8501;49.926;8.404;2022-07-10T14:54:55;3.05;;;1.10;;
16766;SDS011;8501;49.926;8.404;2022-07-10T14:57:21;1.45;;;1.20;;
16766;SDS011;8501;49.926;8.404;2022-07-10T14:59:47;2.72;;;1.20;;
16766;SDS011;8501;49.926;8.404;2022-07-10T15:02:12;1.63;;;1.02;;
16766;SDS011;8501;49.926;8.404;2022-07-10T15:04:38;1.00;;;0.90;;
16766;SDS011;8501;49.926;8.404;2022-07-10T15:07:04;2.08;;;1.10;;
16766;SDS011;8501;49.926;8.404;2022-07-10T15:09:29;1.45;;;1.10;;
16766;SDS011;8501;49.926;8.404;2022-07-10T15:11:55;1.52;;;0.93;;
16766;SDS011;8501;49.926;8.404;2022-07-10T15:14:21;1.20;;;1.00;;
16766;SDS011;8501;49.926;8.404;2022-07-10T15:16:47;2.90;;;1.10;;
16766;SDS011;8501;49.926;8.404;2022-07-10T15:19:12;2.17;;;1.00;;
16766;SDS011;8501;49.926;8.404;2022-07-10T15:21:38;1.10;;;1.00;;
16766;SDS011;8501;49.926;8.404;2022-07-10T15:24:04;3.17;;;1.10;;
16766;SDS011;8501;49.926;8.404;2022-07-10T15:26:30;1.88;;;1.10;;
16766;SDS011;8501;49.926;8.404;2022-07-10T15:28:58;1.20;;;0.90;;
16766;SDS011;8501;49.926;8.404;2022-07-10T15:31:24;1.05;;;0.95;;
16766;SDS011;8501;49.926;8.404;2022-07-10T15:33:51;1.45;;;1.00;;
16766;SDS011;8501;49.926;8.404;2022-07-10T15:36:16;1.30;;;0.90;;
16766;SDS011;8501;49.926;8.404;2022-07-10T15:38:44;1.10;;;1.00;;
16766;SDS011;8501;49.926;8.404;2022-07-10T15:41:10;1.50;;;0.90;;
16766;SDS011;8501;49.926;8.404;2022-07-10T15:43:35;1.67;;;0.90;;